x

West Sea Otter (46204) Wave Buoy

6:00am - Sun 28th May 2017 All times are PDT. -7 hours from GMT.

  • Sig Wave height 2.6ft
  • Peak Period 11s
  • Wind
    11mph, 13mph gusts
  • Sea Temp 53°f
  • 空気 Temp 49°f
  • Sea Pressure 1018.2mb
  • West Sea Otter
  • West Sea Otter

More Historic Weather Station data

Upgrade to MSW Pro to gain access to the past 30 days of data for over 8000 Wavebouys and Weather Stations around the globe.

Join Pro

Comparision Forecast

View Surf forecast
   
Sun 05/28 6:00am 2.5ft 11s 11 13 mph 1018.2mb 53f 49f
5:00am 2.5ft 10s 7 11 mph 1017.7mb 53f 52f
4:00am 2.5ft 10s 4 4 mph 1017.6mb 53f 52f
3:00am 3ft 10s 4 4 mph 1017.8mb 53f 52f
2:00am 3.5ft 10s 2 4 mph 1018mb 53f 53f
1:00am 3ft 10s 2 2 mph 1017.9mb 53f 52f
12:00am 3.5ft 10s 4 4 mph 1018.1mb 53f 52f
Sat 05/27 11:00pm 3.5ft 8s 2 2 mph 1018.5mb 53f 52f
10:00pm 3.5ft 9s 2 2 mph 1018.9mb 53f 52f
9:00pm 3.5ft 10s 4 7 mph 1018.9mb 53f 53f
8:00pm 3.5ft 10s 7 9 mph 1019mb 53f 53f
7:00pm 3ft 11s 11 13 mph 1019.3mb 53f 53f
6:00pm 3.5ft 10s 9 9 mph 1019.7mb 55f 53f
5:00pm 3.5ft 11s 7 9 mph 1020.1mb 54f 51f
4:00pm 4ft 11s 9 9 mph 1020.3mb 53f 50f
3:00pm 4.5ft 11s 9 11 mph 1020.5mb 54f 51f
2:00pm 4.5ft 10s 7 9 mph 1020.7mb 54f 50f
1:00pm 5ft 6s 7 9 mph 1020.8mb 53f 50f
12:00pm 5ft 5s 4 9 mph 1020.9mb 53f 51f
11:00am 5ft 7s 7 9 mph 1020.8mb 53f 51f
10:00am 5ft 11s 7 9 mph 1020.8mb 52f 51f
9:00am 4.5ft 11s 9 11 mph 1020.8mb 52f 51f
8:00am 4.5ft 10s 11 11 mph 1020.4mb 52f 51f
7:00am 4.5ft 7s 11 13 mph 1020.1mb 52f 51f
6:00am 4.5ft 7s 13 16 mph 1019.8mb 52f 51f
5:00am 4.5ft 12s 16 18 mph 1019.4mb 52f 51f
4:00am 4.5ft 8s 16 20 mph 1019.3mb 52f 51f
3:00am 5ft 10s 18 20 mph 1019.2mb 52f 51f
2:00am 5ft 10s 13 18 mph 1019.3mb 52f 51f
1:00am 5ft 6s 13 16 mph 1019.3mb 52f 51f
12:00am 5ft 10s 13 16 mph 1019.1mb 52f 51f
Fri 05/26 11:00pm 5ft 7s 11 16 mph 1019.3mb 52f 51f
10:00pm 6ft 8s 11 13 mph 1019.3mb 52f 51f
9:00pm 5.5ft 10s 13 16 mph 1019.1mb 52f 51f
8:00pm 5ft 8s 13 18 mph 1018.9mb 52f 51f
7:00pm 5ft 8s 13 16 mph 1019.1mb 52f 51f
6:00pm 5ft 8s 16 18 mph 1019.1mb 52f 51f
5:00pm 6ft 7s 16 20 mph 1018.9mb 52f 51f
4:00pm 6ft 7s 16 20 mph 1018.8mb 52f 49f
3:00pm 7ft 7s 18 20 mph 1018.8mb 52f 49f
2:00pm 8ft 8s 18 20 mph 1018.5mb 52f 50f
1:00pm 8ft 7s 18 20 mph 1018.4mb 52f 50f
12:00pm 8ft 8s 18 22 mph 1018.2mb 52f 50f
11:00am 7.5ft 7s 18 22 mph 1018mb 52f 49f
10:00am 8ft 8s 18 22 mph 1017.8mb 52f 49f
9:00am  -   -  18
mph
- - -
8:00am 8ft 8s 18 22 mph 1017.3mb 52f 49f
7:00am 8ft 7s 18 22 mph 1017.1mb 51f 49f
6:00am 7.5ft 8s 20 25 mph 1016.6mb 52f 49f
5:00am 7.5ft 8s 20 27 mph 1016.3mb 52f 49f
4:00am 7.5ft 9s 22 27 mph 1016.2mb 52f 49f
3:00am 7.5ft 8s 20 27 mph 1016mb 52f 50f
2:00am 8ft 8s 20 27 mph 1015.7mb 52f 50f
1:00am 8ft 8s 20 25 mph 1015.5mb 52f 51f
12:00am 8ft 7s 18 25 mph 1015.5mb 52f 51f
Thu 05/25 11:00pm 8ft 8s 20 22 mph 1015.4mb 52f 51f
10:00pm 8.5ft 8s 22 27 mph 1015.5mb 52f 51f
9:00pm 8.5ft 8s 20 25 mph 1015.3mb 52f 51f
8:00pm 9ft 8s 20 27 mph 1015.4mb 52f 51f
7:00pm  -   -  22
mph
1015.4mb - 51f
6:00pm 8ft 7s 22 27 mph 1015.6mb 52f 51f
5:00pm 8.5ft 10s 22 27 mph 1015.7mb 52f 51f
4:00pm 9ft 8s 25 29 mph 1015.7mb 52f 51f
3:00pm 9.5ft 8s 25 29 mph 1015.8mb 51f 51f
2:00pm 9ft 8s 22 27 mph 1015.8mb 51f 51f
1:00pm 10ft 8s 22 27 mph 1015.7mb 51f 51f
12:00pm 10ft 8s 22 27 mph 1016mb 51f 50f
11:00am 10.5ft 8s 22 27 mph 1016mb 51f 50f
10:00am 10.5ft 8s 25 29 mph 1016.2mb 51f 50f
9:00am 10ft 8s 25 29 mph 1016.3mb 51f 50f
8:00am 11ft 10s 25 29 mph 1016.2mb 51f 50f
7:00am 11ft 10s 27 31 mph 1016.2mb 51f 49f
6:00am 10ft 8s 27 31 mph 1016.3mb 51f 49f
5:00am  -   -  27
mph
1016.3mb 51f 49f
4:00am 9.5ft 8s 27 34 mph 1016.7mb 51f 49f
3:00am 10ft 8s 27 31 mph 1016.8mb 50f 49f
2:00am 10.5ft 10s 27 31 mph 1016.9mb 51f 50f
1:00am 10ft 10s 27 31 mph 1017mb 50f 50f
12:00am 11ft 10s 25 29 mph 1017.4mb 50f 50f
Wed 05/24 11:00pm 10ft 9s 25 29 mph 1017.7mb 50f 50f
10:00pm 11ft 10s 25 31 mph 1018.1mb 51f 50f
9:00pm 11ft 10s 22 29 mph 1018.5mb 51f 50f
8:00pm 11ft 9s 25 31 mph 1018.9mb 51f 51f
7:00pm 11ft 11s 22 29 mph 1019.4mb 51f 51f
6:00pm 11ft 11s 25 29 mph 1019.8mb 51f 51f
5:00pm 12.5ft 10s 27 31 mph 1020mb 51f 50f
4:00pm 11ft 8s 27 36 mph 1020.2mb 51f 50f
3:00pm 12.5ft 10s 29 36 mph 1020.5mb 51f 50f